Time;durP1;ratioP1;P1;durP2;ratioP2;P2;SDS_P1;SDS_P2;PMS_P1;PMS_P2;Temp;Humidity;BMP_temperature;BMP_pressure;BME280_temperature;BME280_humidity;BME280_pressure;Samples;Min_cycle;Max_cycle;Signal;HPM_P1;HPM_P2
2021/07/02 00:00:56;;;;;;;4.25;3.08;;;25.50;49.80;;;;;;6132978;28;80506;-66
2021/07/02 00:03:57;;;;;;;5.85;3.55;;;25.50;49.90;;;;;;6128690;28;80518;-67
2021/07/02 00:06:57;;;;;;;8.45;4.03;;;25.50;49.80;;;;;;6135066;28;81458;-65
2021/07/02 00:09:58;;;;;;;6.07;3.75;;;25.50;49.90;;;;;;6126483;28;81428;-65
2021/07/02 00:12:58;;;;;;;6.43;3.30;;;25.50;50.00;;;;;;6134353;28;80275;-66
2021/07/02 00:15:59;;;;;;;7.00;3.80;;;25.50;49.90;;;;;;6129148;28;80767;-66
2021/07/02 00:18:59;;;;;;;5.38;3.42;;;25.50;50.00;;;;;;6126590;28;80748;-65
2021/07/02 00:22:00;;;;;;;9.38;3.90;;;25.50;49.90;;;;;;6134994;28;80405;-66
2021/07/02 00:25:00;;;;;;;5.40;3.58;;;25.50;50.00;;;;;;6133290;28;80283;-65
2021/07/02 00:28:01;;;;;;;6.53;3.85;;;25.50;50.20;;;;;;6128124;28;80564;-65
2021/07/02 00:31:01;;;;;;;4.20;3.33;;;25.50;50.10;;;;;;6128032;28;83179;-65
2021/07/02 00:34:02;;;;;;;8.05;4.32;;;25.50;50.20;;;;;;6135289;28;81235;-65
2021/07/02 00:37:02;;;;;;;6.07;3.72;;;25.50;50.20;;;;;;6127044;28;81830;-65
2021/07/02 00:40:03;;;;;;;6.10;3.63;;;25.40;50.30;;;;;;6131698;28;82828;-65
2021/07/02 00:43:03;;;;;;;5.88;4.25;;;25.40;50.30;;;;;;6134441;28;80577;-66
2021/07/02 00:46:04;;;;;;;6.93;3.30;;;25.40;50.40;;;;;;6133672;28;83089;-66
2021/07/02 00:49:05;;;;;;;4.22;3.17;;;25.40;50.40;;;;;;6134500;28;80330;-66
2021/07/02 00:52:06;;;;;;;7.22;3.53;;;25.40;50.60;;;;;;6131190;28;80822;-70
2021/07/02 00:55:07;;;;;;;6.60;4.13;;;25.50;50.70;;;;;;6116973;28;82069;-68
2021/07/02 00:58:07;;;;;;;7.05;3.75;;;25.50;50.70;;;;;;6142989;28;80340;-67
2021/07/02 01:01:16;;;;;;;6.22;4.57;;;25.50;50.70;;;;;;6132335;28;83363;-67
2021/07/02 01:04:17;;;;;;;6.63;3.58;;;25.50;50.70;;;;;;6132784;28;83479;-66
2021/07/02 01:07:18;;;;;;;7.50;4.03;;;25.50;50.60;;;;;;6131461;28;83453;-66
2021/07/02 01:10:20;;;;;;;6.78;3.60;;;25.50;50.60;;;;;;6132625;28;82789;-66
2021/07/02 01:13:22;;;;;;;5.00;3.42;;;25.60;50.70;;;;;;6131368;28;80521;-65
2021/07/02 01:16:22;;;;;;;7.20;4.20;;;25.50;50.70;;;;;;6131290;28;82259;-65
2021/07/02 01:19:24;;;;;;;7.63;3.90;;;25.50;50.80;;;;;;6115495;28;82898;-65
2021/07/02 01:22:26;;;;;;;5.25;3.67;;;25.50;50.80;;;;;;6129019;28;80606;-65
2021/07/02 01:25:29;;;;;;;5.85;3.63;;;25.50;51.00;;;;;;6128785;28;82811;-65
2021/07/02 01:28:30;;;;;;;6.22;3.80;;;25.50;51.00;;;;;;6135890;28;82831;-66
2021/07/02 01:31:31;;;;;;;6.15;3.92;;;25.50;51.00;;;;;;6130436;28;83301;-66
2021/07/02 01:34:32;;;;;;;5.13;3.60;;;25.50;51.70;;;;;;6129234;28;83353;-66
2021/07/02 01:37:33;;;;;;;7.45;4.30;;;25.50;51.20;;;;;;6123487;28;81373;-67
2021/07/02 01:40:36;;;;;;;7.38;4.15;;;25.50;51.70;;;;;;6130579;28;81804;-66
2021/07/02 01:43:38;;;;;;;6.00;3.78;;;25.50;51.10;;;;;;6136241;28;83090;-66
2021/07/02 01:46:39;;;;;;;5.70;4.03;;;25.50;51.30;;;;;;6125457;28;81681;-67
2021/07/02 01:49:41;;;;;;;5.28;3.83;;;25.50;51.40;;;;;;6131578;28;87698;-66
2021/07/02 01:52:42;;;;;;;5.28;3.92;;;25.40;51.30;;;;;;6135094;28;83696;-66
2021/07/02 01:55:43;;;;;;;6.20;3.63;;;25.40;51.30;;;;;;6130378;28;80239;-66
2021/07/02 01:58:44;;;;;;;6.57;3.85;;;25.40;51.30;;;;;;6132999;28;80349;-66
2021/07/02 02:02:00;;;;;;;5.55;3.30;;;25.40;51.30;;;;;;6135801;28;83103;-66
2021/07/02 02:05:01;;;;;;;7.55;3.88;;;25.40;51.40;;;;;;6129730;28;80389;-67
2021/07/02 02:08:02;;;;;;;6.25;3.92;;;25.30;51.30;;;;;;6135892;28;87944;-67
2021/07/02 02:11:03;;;;;;;4.97;3.45;;;25.40;51.40;;;;;;6127404;28;80575;-66
2021/07/02 02:14:10;;;;;;;7.68;3.67;;;25.30;51.30;;;;;;6135656;28;82929;-67
2021/07/02 02:17:14;;;;;;;8.15;4.20;;;25.40;51.40;;;;;;6135393;28;83318;-66
2021/07/02 02:20:16;;;;;;;10.20;4.28;;;25.40;51.30;;;;;;6142079;28;82185;-66
2021/07/02 02:23:17;;;;;;;6.15;4.20;;;25.40;51.30;;;;;;6130575;28;80468;-66
2021/07/02 02:26:17;;;;;;;10.93;4.07;;;25.40;51.30;;;;;;6135152;28;80384;-67
2021/07/02 02:29:18;;;;;;;10.60;4.20;;;25.40;51.40;;;;;;6134871;28;82106;-67
2021/07/02 02:32:19;;;;;;;5.47;3.90;;;25.40;51.30;;;;;;6136553;28;82534;-66
2021/07/02 02:35:21;;;;;;;8.32;3.85;;;25.40;51.30;;;;;;6135500;28;82992;-66
2021/07/02 02:38:23;;;;;;;6.60;3.97;;;25.40;51.30;;;;;;6134220;28;83277;-66
2021/07/02 02:41:24;;;;;;;5.38;3.83;;;25.40;51.40;;;;;;6135136;28;82569;-66
2021/07/02 02:44:25;;;;;;;7.40;4.10;;;25.40;51.30;;;;;;6131775;28;83709;-66
2021/07/02 02:47:27;;;;;;;5.97;3.80;;;25.40;51.30;;;;;;6134036;28;83065;-66
2021/07/02 02:50:28;;;;;;;8.35;4.03;;;25.40;51.40;;;;;;6127747;28;80868;-66
2021/07/02 02:53:29;;;;;;;4.70;3.33;;;25.40;52.00;;;;;;6135566;28;82135;-66
2021/07/02 02:56:29;;;;;;;9.50;4.15;;;25.40;51.40;;;;;;6135459;28;82219;-66
2021/07/02 02:59:33;;;;;;;7.68;4.72;;;25.30;51.30;;;;;;6130136;28;83064;-66
2021/07/02 03:02:35;;;;;;;8.02;3.42;;;25.40;51.40;;;;;;6131460;28;81724;-67
2021/07/02 03:05:36;;;;;;;8.40;3.53;;;25.40;51.50;;;;;;6132993;28;81389;-67
2021/07/02 03:08:38;;;;;;;4.85;3.80;;;25.30;51.50;;;;;;6137228;28;80419;-66
2021/07/02 03:11:38;;;;;;;5.82;3.67;;;25.40;51.60;;;;;;6129420;28;83058;-66
2021/07/02 03:14:39;;;;;;;7.25;4.15;;;25.30;51.40;;;;;;6135124;28;82646;-66
2021/07/02 03:17:40;;;;;;;5.40;3.50;;;25.30;51.40;;;;;;6130838;28;81402;-66
2021/07/02 03:20:41;;;;;;;8.30;4.05;;;25.30;51.50;;;;;;6134406;28;82589;-66
2021/07/02 03:23:42;;;;;;;5.05;3.67;;;25.30;51.90;;;;;;6130035;28;83631;-66
2021/07/02 03:26:45;;;;;;;5.57;3.58;;;25.30;51.70;;;;;;6142680;28;82465;-65
2021/07/02 03:29:46;;;;;;;7.03;4.07;;;25.30;51.60;;;;;;6119735;28;82676;-65
2021/07/02 03:32:47;;;;;;;5.90;3.00;;;25.30;51.60;;;;;;6113979;28;87590;-66
2021/07/02 03:35:49;;;;;;;6.85;3.38;;;25.40;51.80;;;;;;6129082;28;83024;-66
2021/07/02 03:38:50;;;;;;;7.57;3.63;;;25.30;51.80;;;;;;6134404;28;82517;-66
2021/07/02 03:41:52;;;;;;;6.10;3.78;;;25.30;51.80;;;;;;6134735;28;83176;-66
2021/07/02 03:44:54;;;;;;;6.55;3.70;;;25.30;51.90;;;;;;6113041;28;81383;-66
2021/07/02 03:47:54;;;;;;;5.28;3.15;;;25.30;52.10;;;;;;6122009;28;80522;-65
2021/07/02 03:50:55;;;;;;;5.50;3.30;;;25.30;52.10;;;;;;6134766;28;82763;-65
2021/07/02 03:53:56;;;;;;;12.10;3.47;;;25.40;52.10;;;;;;6134698;28;82621;-64
2021/07/02 03:57:12;;;;;;;6.13;3.42;;;25.40;52.30;;;;;;6132596;28;82929;-63
2021/07/02 04:00:13;;;;;;;7.93;3.00;;;25.50;52.20;;;;;;6144181;28;81690;-64
2021/07/02 04:03:17;;;;;;;6.32;3.45;;;25.50;52.10;;;;;;6125246;28;80553;-63
2021/07/02 04:06:17;;;;;;;5.22;3.50;;;25.50;52.30;;;;;;6127790;28;81054;-65
2021/07/02 04:09:18;;;;;;;5.28;3.10;;;25.50;52.20;;;;;;6129950;28;81437;-66
2021/07/02 04:12:19;;;;;;;5.75;3.17;;;25.50;52.30;;;;;;6133469;28;80886;-64
2021/07/02 04:15:19;;;;;;;7.60;4.35;;;25.60;52.50;;;;;;6144542;28;80575;-63
2021/07/02 04:18:20;;;;;;;3.80;3.17;;;25.60;52.10;;;;;;6135193;28;80547;-65
2021/07/02 04:21:20;;;;;;;6.72;2.95;;;25.60;52.20;;;;;;6136939;28;80548;-64
2021/07/02 04:24:21;;;;;;;7.30;4.07;;;25.70;52.20;;;;;;6131084;28;80598;-66
2021/07/02 04:27:22;;;;;;;4.88;3.60;;;25.70;52.50;;;;;;6130836;28;80234;-65
2021/07/02 04:30:22;;;;;;;10.73;3.33;;;25.70;52.80;;;;;;6107660;28;80412;-64
2021/07/02 04:33:23;;;;;;;5.25;3.78;;;25.70;52.70;;;;;;6107630;28;83353;-65
2021/07/02 04:36:23;;;;;;;7.35;3.90;;;25.70;53.10;;;;;;6111673;28;81728;-65
2021/07/02 04:39:24;;;;;;;5.38;3.22;;;25.70;53.30;;;;;;6134284;28;80848;-65
2021/07/02 04:42:24;;;;;;;4.75;3.67;;;25.70;53.10;;;;;;6134003;28;80426;-65
2021/07/02 04:45:25;;;;;;;11.40;4.05;;;25.80;53.10;;;;;;6132774;28;83308;-65
2021/07/02 04:48:25;;;;;;;6.22;3.95;;;25.80;53.10;;;;;;6128873;28;80413;-64
2021/07/02 04:51:26;;;;;;;10.38;4.80;;;25.80;53.30;;;;;;6127227;28;80344;-62
2021/07/02 04:54:26;;;;;;;8.02;4.30;;;25.80;53.00;;;;;;6125303;28;80727;-64
2021/07/02 04:57:27;;;;;;;8.48;4.10;;;25.80;53.60;;;;;;6130159;28;80843;-64
2021/07/02 05:00:27;;;;;;;6.57;4.68;;;25.80;53.10;;;;;;6127683;28;81274;-65
2021/07/02 05:03:28;;;;;;;9.75;4.25;;;25.90;53.40;;;;;;6127570;28;80891;-65
2021/07/02 05:06:28;;;;;;;8.38;3.75;;;25.90;53.30;;;;;;6122108;28;80526;-66
2021/07/02 05:09:29;;;;;;;8.07;4.50;;;25.90;53.20;;;;;;6132193;28;81682;-65
2021/07/02 05:12:30;;;;;;;7.80;3.78;;;25.90;53.30;;;;;;6131220;28;80373;-65
2021/07/02 05:15:30;;;;;;;7.72;4.30;;;25.90;53.50;;;;;;6134293;28;80866;-63
2021/07/02 05:18:31;;;;;;;4.93;3.85;;;25.90;53.80;;;;;;6132614;28;81906;-63
2021/07/02 05:21:31;;;;;;;7.50;4.35;;;25.90;53.20;;;;;;6131807;28;81277;-65
2021/07/02 05:24:32;;;;;;;5.25;3.58;;;25.90;53.40;;;;;;6128733;28;88622;-67
2021/07/02 05:27:32;;;;;;;5.10;3.88;;;25.90;52.90;;;;;;6130657;28;80691;-64
2021/07/02 05:30:33;;;;;;;6.32;3.88;;;25.90;53.00;;;;;;6130592;28;80545;-65
2021/07/02 05:33:33;;;;;;;6.93;4.07;;;25.90;52.80;;;;;;6131642;28;80573;-68
2021/07/02 05:36:34;;;;;;;10.90;4.53;;;25.80;52.40;;;;;;6132605;28;80934;-65
2021/07/02 05:39:34;;;;;;;18.30;4.45;;;25.80;52.70;;;;;;6132070;28;80384;-63
2021/07/02 05:42:34;;;;;;;9.45;4.35;;;25.80;52.80;;;;;;6132249;28;83232;-65
2021/07/02 05:45:35;;;;;;;7.55;3.78;;;25.80;53.10;;;;;;6132818;28;80720;-66
2021/07/02 05:48:36;;;;;;;10.10;4.47;;;25.80;52.50;;;;;;6132070;28;80754;-66
2021/07/02 05:51:36;;;;;;;8.07;3.80;;;25.80;53.00;;;;;;6128925;28;82040;-66
2021/07/02 05:54:37;;;;;;;9.70;4.15;;;25.80;52.50;;;;;;6130964;28;80695;-67
2021/07/02 05:57:37;;;;;;;6.85;4.38;;;25.80;52.20;;;;;;6134263;28;82002;-66
2021/07/02 06:00:38;;;;;;;7.13;4.22;;;25.80;52.20;;;;;;6129206;28;81351;-65
2021/07/02 06:03:38;;;;;;;12.05;4.97;;;25.80;52.00;;;;;;6129955;28;80523;-67
2021/07/02 06:06:39;;;;;;;8.43;4.30;;;25.80;52.00;;;;;;6156632;28;80470;-66
2021/07/02 06:09:39;;;;;;;14.13;4.60;;;25.70;52.10;;;;;;6126870;28;81031;-66
2021/07/02 06:12:40;;;;;;;16.00;4.82;;;25.70;52.60;;;;;;6133915;28;80897;-66
2021/07/02 06:15:40;;;;;;;9.32;4.97;;;25.70;52.70;;;;;;6131338;28;80410;-68
2021/07/02 06:18:41;;;;;;;11.35;4.68;;;25.70;52.60;;;;;;6130957;28;81060;-67
2021/07/02 06:21:41;;;;;;;19.73;4.82;;;25.70;52.60;;;;;;6129678;28;80645;-64
2021/07/02 06:24:42;;;;;;;11.82;4.45;;;25.60;52.80;;;;;;6130225;28;84407;-65
2021/07/02 06:27:42;;;;;;;7.53;4.38;;;25.60;52.80;;;;;;6123491;28;80929;-65
2021/07/02 06:30:43;;;;;;;9.63;4.90;;;25.60;52.90;;;;;;6131823;28;81670;-65
2021/07/02 06:33:43;;;;;;;7.38;4.45;;;25.60;53.40;;;;;;6133744;28;80444;-67
2021/07/02 06:36:44;;;;;;;9.25;5.47;;;25.50;53.20;;;;;;6130766;28;82512;-66
2021/07/02 06:39:44;;;;;;;16.02;9.73;;;25.50;53.40;;;;;;6128816;28;80427;-66
2021/07/02 06:42:45;;;;;;;15.65;8.60;;;25.50;53.40;;;;;;6134900;28;80324;-67
2021/07/02 06:45:45;;;;;;;12.07;7.10;;;25.40;53.60;;;;;;6132377;28;80528;-66
2021/07/02 06:48:46;;;;;;;11.10;6.60;;;25.30;53.70;;;;;;6130231;28;82129;-67
2021/07/02 06:51:46;;;;;;;8.50;5.15;;;25.30;54.10;;;;;;6133851;28;80774;-68
2021/07/02 06:54:47;;;;;;;9.45;5.47;;;25.30;54.40;;;;;;6132681;28;80510;-68
2021/07/02 06:57:47;;;;;;;8.20;5.15;;;25.20;54.30;;;;;;6128382;28;80826;-68
2021/07/02 07:00:48;;;;;;;7.28;5.07;;;25.20;54.30;;;;;;6133960;28;80437;-68
2021/07/02 07:03:48;;;;;;;10.43;6.15;;;25.30;54.30;;;;;;6129108;28;80548;-68
2021/07/02 07:06:49;;;;;;;9.13;5.55;;;25.30;54.20;;;;;;6130998;28;80356;-68
2021/07/02 07:09:49;;;;;;;9.60;5.53;;;25.20;54.20;;;;;;6128982;28;81478;-69
2021/07/02 07:12:50;;;;;;;7.03;5.25;;;25.20;54.40;;;;;;6133741;28;80512;-68
2021/07/02 07:15:51;;;;;;;8.48;6.15;;;25.20;54.20;;;;;;6132985;28;80666;-67
2021/07/02 07:18:52;;;;;;;9.32;5.05;;;25.20;54.20;;;;;;6134090;28;80458;-68
2021/07/02 07:21:52;;;;;;;7.97;5.63;;;25.20;54.30;;;;;;6133344;28;80442;-68
2021/07/02 07:24:53;;;;;;;6.30;4.53;;;25.20;54.30;;;;;;6133696;28;81508;-68
2021/07/02 07:27:53;;;;;;;9.80;5.55;;;25.30;54.20;;;;;;6132579;28;80936;-69
2021/07/02 07:30:54;;;;;;;13.63;5.75;;;25.30;54.20;;;;;;6136002;28;80665;-68
2021/07/02 07:33:57;;;;;;;7.28;4.88;;;25.30;54.20;;;;;;6135887;28;81355;-68
2021/07/02 07:37:01;;;;;;;15.90;5.35;;;25.30;54.50;;;;;;6132231;28;80978;-69
2021/07/02 07:40:01;;;;;;;69.88;22.85;;;25.20;54.30;;;;;;6132500;28;81684;-71
2021/07/02 07:43:02;;;;;;;101.88;35.22;;;25.20;54.40;;;;;;6133127;28;82929;-71
2021/07/02 07:46:02;;;;;;;44.70;17.58;;;25.10;53.90;;;;;;6130811;28;83165;-72
2021/07/02 07:49:03;;;;;;;40.08;15.10;;;25.10;54.00;;;;;;6124454;28;82783;-70
2021/07/02 07:55:04;;;;;;;26.25;11.07;;;25.10;54.40;;;;;;6129419;28;83063;-70
2021/07/02 07:58:04;;;;;;;25.92;9.85;;;25.10;54.30;;;;;;6132901;28;84938;-69
2021/07/02 08:01:05;;;;;;;21.00;9.50;;;25.10;54.30;;;;;;6133985;28;82740;-70
2021/07/02 08:04:05;;;;;;;14.82;8.20;;;25.20;54.30;;;;;;6137335;28;80844;-71
2021/07/02 08:07:06;;;;;;;18.98;8.38;;;25.20;53.90;;;;;;6123368;28;81051;-71
2021/07/02 08:10:07;;;;;;;10.18;6.20;;;25.10;53.80;;;;;;6135613;28;80606;-70
2021/07/02 08:13:08;;;;;;;16.13;5.85;;;25.10;53.60;;;;;;6132293;28;80804;-70
2021/07/02 08:16:09;;;;;;;12.07;5.57;;;25.10;53.50;;;;;;6130802;28;81019;-70
2021/07/02 08:19:09;;;;;;;7.47;4.90;;;25.20;53.50;;;;;;6128966;28;80247;-68
2021/07/02 08:22:10;;;;;;;10.90;5.18;;;25.20;53.30;;;;;;6129744;28;80514;-68
2021/07/02 08:25:10;;;;;;;7.95;4.65;;;25.10;53.30;;;;;;6129680;28;80658;-69
2021/07/02 08:31:30;;;;;;;9.18;5.07;;;25.10;53.50;;;;;;6162204;28;83427;-67
2021/07/02 08:34:30;;;;;;;11.77;7.53;;;25.20;53.60;;;;;;6129743;28;80604;-67
2021/07/02 08:37:34;;;;;;;12.20;6.20;;;25.20;53.50;;;;;;6131447;28;80168;-68
2021/07/02 08:40:34;;;;;;;7.82;5.18;;;25.20;53.40;;;;;;6133016;28;80769;-67
2021/07/02 08:43:35;;;;;;;8.35;4.53;;;25.20;53.30;;;;;;6117326;28;80373;-67
2021/07/02 08:46:35;;;;;;;6.95;4.78;;;25.20;53.10;;;;;;6110168;28;80259;-67
2021/07/02 08:49:36;;;;;;;9.13;6.22;;;25.20;53.00;;;;;;6108619;28;81886;-66
2021/07/02 08:52:36;;;;;;;6.78;4.13;;;25.20;52.90;;;;;;6120518;28;80549;-67
2021/07/02 08:55:39;;;;;;;6.65;4.18;;;25.20;53.00;;;;;;6122697;28;80659;-66
2021/07/02 08:58:39;;;;;;;7.00;3.90;;;25.30;53.10;;;;;;6130688;28;81682;-66
2021/07/02 09:01:41;;;;;;;8.60;4.13;;;25.30;53.30;;;;;;6126161;28;80787;-67
2021/07/02 09:04:42;;;;;;;14.18;4.72;;;25.30;53.00;;;;;;6133413;28;80309;-68
2021/07/02 09:07:42;;;;;;;6.50;3.90;;;25.30;53.20;;;;;;6136265;28;81450;-67
2021/07/02 09:10:43;;;;;;;7.80;4.57;;;25.30;53.40;;;;;;6132928;28;80170;-69
2021/07/02 09:13:43;;;;;;;6.63;4.45;;;25.30;53.30;;;;;;6133739;28;80957;-71
2021/07/02 09:16:48;;;;;;;9.15;4.88;;;25.30;53.30;;;;;;6131246;28;80604;-67
2021/07/02 09:19:48;;;;;;;7.07;4.20;;;25.30;53.20;;;;;;6131545;28;80676;-68
2021/07/02 09:22:49;;;;;;;8.88;4.97;;;25.30;53.40;;;;;;6131758;28;80777;-71
2021/07/02 09:25:51;;;;;;;5.93;4.70;;;25.40;53.60;;;;;;6133777;28;81291;-68
2021/07/02 09:28:51;;;;;;;8.45;4.20;;;25.40;53.60;;;;;;6133885;28;80847;-68
2021/07/02 09:31:52;;;;;;;8.68;5.03;;;25.40;53.50;;;;;;6127184;28;80819;-71
2021/07/02 09:34:52;;;;;;;5.57;4.15;;;25.50;53.40;;;;;;6133725;28;80549;-72
2021/07/02 09:37:53;;;;;;;6.65;4.50;;;25.50;53.60;;;;;;6126491;28;80842;-71
2021/07/02 09:40:54;;;;;;;10.65;4.53;;;25.50;53.70;;;;;;6132761;28;80453;-71
2021/07/02 09:43:57;;;;;;;8.40;4.05;;;25.50;53.00;;;;;;6134869;28;80828;-71
2021/07/02 09:46:57;;;;;;;9.27;4.28;;;25.40;53.00;;;;;;6133654;28;80320;-68
2021/07/02 09:49:58;;;;;;;9.32;4.30;;;25.40;53.20;;;;;;6134378;28;81399;-70
2021/07/02 09:52:58;;;;;;;11.27;5.88;;;25.40;53.50;;;;;;6130815;28;80308;-69
2021/07/02 09:55:59;;;;;;;11.10;6.70;;;25.30;53.50;;;;;;6133807;28;80934;-69
2021/07/02 09:58:59;;;;;;;11.20;5.47;;;25.30;53.70;;;;;;6128025;28;80476;-71
2021/07/02 10:02:00;;;;;;;14.23;5.72;;;25.40;53.30;;;;;;6128313;28;80416;-70
2021/07/02 10:05:00;;;;;;;8.43;4.43;;;25.50;53.50;;;;;;6137952;28;80641;-71
2021/07/02 10:08:01;;;;;;;5.95;4.97;;;25.50;53.10;;;;;;6129160;28;80502;-69
2021/07/02 10:11:01;;;;;;;6.22;4.78;;;25.60;53.00;;;;;;6133128;28;81543;-69
2021/07/02 10:14:02;;;;;;;6.15;4.65;;;25.60;52.90;;;;;;6135867;28;83340;-68
2021/07/02 10:17:02;;;;;;;12.40;5.63;;;25.60;52.80;;;;;;6136806;28;80415;-69
2021/07/02 10:20:03;;;;;;;15.38;9.02;;;25.60;52.80;;;;;;6126782;28;82151;-69
2021/07/02 10:23:03;;;;;;;8.88;6.13;;;25.60;52.90;;;;;;6137645;28;80704;-68
2021/07/02 10:26:05;;;;;;;12.95;6.00;;;25.60;52.70;;;;;;6124412;28;81308;-67
2021/07/02 10:29:06;;;;;;;8.18;5.63;;;25.60;53.00;;;;;;6130195;28;80154;-68
2021/07/02 10:32:06;;;;;;;8.10;5.38;;;25.60;53.00;;;;;;6134616;28;80687;-68
2021/07/02 10:35:07;;;;;;;7.55;5.45;;;25.50;52.90;;;;;;6136040;28;87464;-69
2021/07/02 10:38:07;;;;;;;11.30;5.03;;;25.40;52.90;;;;;;6123451;28;81461;-68
2021/07/02 10:41:08;;;;;;;16.02;5.15;;;25.50;53.00;;;;;;6128448;28;80651;-67
2021/07/02 10:44:09;;;;;;;15.95;5.45;;;25.50;52.90;;;;;;6133784;28;80817;-68
2021/07/02 10:47:09;;;;;;;9.85;5.15;;;25.60;53.30;;;;;;6133960;28;81014;-71
2021/07/02 10:50:10;;;;;;;9.15;5.10;;;25.60;53.20;;;;;;6128022;28;83414;-70
2021/07/02 10:53:10;;;;;;;12.45;6.65;;;25.40;53.00;;;;;;6133867;28;80461;-66
2021/07/02 10:56:11;;;;;;;9.77;6.85;;;25.50;53.20;;;;;;6136796;28;80399;-71
2021/07/02 10:59:15;;;;;;;11.48;5.88;;;25.60;53.50;;;;;;6134685;28;80711;-69
2021/07/02 11:02:15;;;;;;;9.88;5.13;;;25.60;53.30;;;;;;6132984;28;81030;-69
2021/07/02 11:05:16;;;;;;;7.13;4.85;;;25.60;53.40;;;;;;6134148;28;81507;-70
2021/07/02 11:08:16;;;;;;;10.75;5.28;;;25.60;53.80;;;;;;6132495;28;81742;-70
2021/07/02 11:11:17;;;;;;;7.10;4.93;;;25.60;53.40;;;;;;6137708;28;80783;-70
2021/07/02 11:14:18;;;;;;;9.63;4.88;;;25.60;53.50;;;;;;6128249;28;80148;-70
2021/07/02 11:17:19;;;;;;;7.10;5.35;;;25.70;53.70;;;;;;6126980;28;81554;-70
2021/07/02 11:20:23;;;;;;;11.82;5.43;;;25.70;53.30;;;;;;6132550;28;81371;-70
2021/07/02 11:23:23;;;;;;;7.68;5.05;;;25.50;53.10;;;;;;6133265;28;83258;-64
2021/07/02 11:26:24;;;;;;;7.85;4.82;;;25.50;53.30;;;;;;6126323;28;80312;-67
2021/07/02 11:29:24;;;;;;;7.65;5.35;;;25.50;53.40;;;;;;6132725;28;83369;-66
2021/07/02 11:32:25;;;;;;;9.35;4.88;;;25.50;53.40;;;;;;6133161;28;80342;-67
2021/07/02 11:35:29;;;;;;;7.18;4.72;;;25.60;53.10;;;;;;6130795;28;81806;-67
2021/07/02 11:38:29;;;;;;;5.60;4.50;;;25.60;53.30;;;;;;6128639;28;81628;-67
2021/07/02 11:41:30;;;;;;;6.20;4.57;;;25.60;53.40;;;;;;6129628;28;81221;-66
2021/07/02 11:44:30;;;;;;;7.00;4.57;;;25.70;53.30;;;;;;6132991;28;80650;-66
2021/07/02 11:47:31;;;;;;;8.85;5.05;;;25.60;53.30;;;;;;6131807;28;80229;-66
2021/07/02 11:50:31;;;;;;;5.63;4.88;;;25.70;53.90;;;;;;6133637;28;81228;-66
2021/07/02 11:53:32;;;;;;;6.07;5.45;;;25.70;53.40;;;;;;6134662;28;80697;-67
2021/07/02 11:56:32;;;;;;;5.65;4.72;;;25.70;53.30;;;;;;6132331;28;80882;-67
2021/07/02 11:59:33;;;;;;;6.28;4.38;;;25.70;53.40;;;;;;6135377;28;80516;-67
2021/07/02 12:02:33;;;;;;;6.15;3.90;;;25.70;53.20;;;;;;6129541;28;83263;-66
2021/07/02 12:05:34;;;;;;;6.45;3.90;;;25.80;52.70;;;;;;6135046;28;80478;-67
2021/07/02 12:08:34;;;;;;;4.57;3.90;;;25.80;52.30;;;;;;6134791;28;80939;-67
2021/07/02 12:11:36;;;;;;;6.05;3.72;;;25.80;51.80;;;;;;6134348;28;80327;-69
2021/07/02 12:14:38;;;;;;;6.40;4.82;;;25.80;51.60;;;;;;6136251;28;80685;-68
2021/07/02 12:17:39;;;;;;;5.70;4.43;;;25.80;51.00;;;;;;6133297;28;80549;-67
2021/07/02 12:20:40;;;;;;;7.82;4.78;;;25.80;51.10;;;;;;6133998;28;80659;-67
2021/07/02 12:23:40;;;;;;;6.90;4.70;;;25.80;50.90;;;;;;6133655;28;80537;-68
2021/07/02 12:26:40;;;;;;;8.68;4.80;;;25.80;51.00;;;;;;6133991;28;80636;-67
2021/07/02 12:29:41;;;;;;;7.93;5.15;;;25.80;51.30;;;;;;6132130;28;80839;-70
2021/07/02 12:32:42;;;;;;;10.50;4.47;;;25.80;51.40;;;;;;6129489;28;81852;-67
2021/07/02 12:35:43;;;;;;;14.43;5.43;;;25.80;51.50;;;;;;6132194;28;80783;-67
2021/07/02 12:38:43;;;;;;;9.52;5.40;;;25.80;51.60;;;;;;6130247;28;80614;-66
2021/07/02 12:41:44;;;;;;;9.70;4.38;;;25.80;51.70;;;;;;6128337;28;81402;-63
2021/07/02 12:44:44;;;;;;;11.23;4.63;;;25.80;51.70;;;;;;6135858;28;80612;-66
2021/07/02 12:47:45;;;;;;;5.63;4.43;;;25.80;51.50;;;;;;6129288;28;80772;-66
2021/07/02 12:50:47;;;;;;;11.15;5.32;;;25.80;51.60;;;;;;6138611;28;80680;-67
2021/07/02 12:57:07;;;;;;;6.88;5.50;;;25.80;51.50;;;;;;6128018;28;80944;-68
2021/07/02 13:00:07;;;;;;;8.77;5.13;;;25.90;52.00;;;;;;6133876;28;81418;-66
2021/07/02 13:03:08;;;;;;;12.05;5.10;;;25.90;51.90;;;;;;6132405;28;80432;-66
2021/07/02 13:06:08;;;;;;;8.10;4.68;;;25.90;52.00;;;;;;6130969;28;80678;-65
2021/07/02 13:09:09;;;;;;;7.22;4.82;;;25.90;51.90;;;;;;6133767;28;80938;-66
2021/07/02 13:12:09;;;;;;;5.07;4.10;;;25.90;52.50;;;;;;6134557;28;80667;-65
2021/07/02 13:15:10;;;;;;;8.05;4.65;;;25.90;52.60;;;;;;6135770;28;81000;-65
2021/07/02 13:18:10;;;;;;;11.45;5.15;;;25.90;52.70;;;;;;6129512;28;80572;-66
2021/07/02 13:21:11;;;;;;;7.82;4.97;;;25.90;52.60;;;;;;6133398;28;81306;-65
2021/07/02 13:24:12;;;;;;;8.35;4.53;;;25.90;52.40;;;;;;6134168;28;80507;-66
2021/07/02 13:27:12;;;;;;;10.05;4.18;;;25.90;52.40;;;;;;6135748;28;80503;-66
2021/07/02 13:30:13;;;;;;;6.45;4.50;;;25.90;52.40;;;;;;6130384;28;80594;-65
2021/07/02 13:33:13;;;;;;;5.95;3.88;;;25.90;52.90;;;;;;6126978;28;80903;-65
2021/07/02 13:36:14;;;;;;;7.82;4.18;;;25.90;52.20;;;;;;6129034;28;80402;-66
2021/07/02 13:39:14;;;;;;;5.43;4.10;;;25.90;52.10;;;;;;6124607;28;80477;-65
2021/07/02 13:42:15;;;;;;;9.85;4.55;;;25.90;51.90;;;;;;6128743;28;80381;-65
2021/07/02 13:45:15;;;;;;;8.48;4.47;;;25.90;51.80;;;;;;6131613;28;81984;-66
2021/07/02 13:48:16;;;;;;;11.35;4.88;;;26.00;51.70;;;;;;6133330;28;80737;-65
2021/07/02 13:51:16;;;;;;;5.78;4.15;;;26.00;51.50;;;;;;6134757;28;80406;-65
2021/07/02 13:54:17;;;;;;;7.82;4.75;;;26.00;51.50;;;;;;6128708;28;81763;-69
2021/07/02 13:57:19;;;;;;;6.78;4.18;;;26.00;51.50;;;;;;6135308;28;80431;-66
2021/07/02 14:00:19;;;;;;;8.40;4.82;;;26.00;51.40;;;;;;6161906;28;81607;-66
2021/07/02 14:03:23;;;;;;;94.78;35.13;;;26.00;51.80;;;;;;6136841;28;80755;-66
2021/07/02 14:06:24;;;;;;;214.95;82.10;;;26.00;51.80;;;;;;6130317;28;82804;-67
2021/07/02 14:09:24;;;;;;;200.95;74.10;;;26.00;52.00;;;;;;6128221;28;84486;-67
2021/07/02 14:12:25;;;;;;;180.73;62.95;;;26.10;51.80;;;;;;6128765;28;83264;-67
2021/07/02 14:15:25;;;;;;;135.98;48.22;;;26.00;51.90;;;;;;6129716;28;83423;-66
2021/07/02 14:18:26;;;;;;;108.60;41.13;;;26.10;52.50;;;;;;6134401;28;83383;-66
2021/07/02 14:21:26;;;;;;;100.30;34.95;;;26.10;52.10;;;;;;6131594;28;83384;-65
2021/07/02 14:24:27;;;;;;;80.65;33.10;;;26.10;52.40;;;;;;6126425;28;83652;-67
2021/07/02 14:27:27;;;;;;;74.47;28.05;;;26.10;52.30;;;;;;6122875;28;83488;-66
2021/07/02 14:30:28;;;;;;;69.50;26.80;;;26.00;52.40;;;;;;6131224;28;83442;-68
2021/07/02 14:33:28;;;;;;;51.17;21.65;;;26.10;52.60;;;;;;6130152;28;82985;-65
2021/07/02 14:36:29;;;;;;;40.75;17.65;;;26.10;52.60;;;;;;6119911;28;84448;-67
2021/07/02 14:39:29;;;;;;;33.10;15.82;;;26.10;52.80;;;;;;6121876;28;83144;-66
2021/07/02 14:42:30;;;;;;;34.83;14.55;;;26.00;52.60;;;;;;6123647;28;83392;-66
2021/07/02 14:45:30;;;;;;;25.85;11.98;;;26.10;52.70;;;;;;6128548;28;83514;-66
2021/07/02 14:48:31;;;;;;;25.23;10.85;;;26.10;52.70;;;;;;6129628;28;83738;-67
2021/07/02 14:51:31;;;;;;;28.25;10.63;;;26.10;52.80;;;;;;6131636;28;83445;-67
2021/07/02 14:54:32;;;;;;;18.50;9.15;;;26.10;52.70;;;;;;6127024;28;87284;-67
2021/07/02 14:57:33;;;;;;;24.38;9.27;;;26.10;52.60;;;;;;6133533;28;82947;-67
2021/07/02 15:00:34;;;;;;;17.67;8.63;;;26.10;53.00;;;;;;6135340;28;80706;-66
2021/07/02 15:03:34;;;;;;;15.50;7.70;;;26.10;52.70;;;;;;6126901;28;80576;-65
2021/07/02 15:06:35;;;;;;;13.68;7.30;;;26.10;52.70;;;;;;6127638;28;82008;-64
2021/07/02 15:09:35;;;;;;;11.20;6.43;;;26.10;52.80;;;;;;6132996;28;81485;-67
2021/07/02 15:12:36;;;;;;;10.95;6.13;;;26.10;52.90;;;;;;6127291;28;80830;-66
2021/07/02 15:15:36;;;;;;;10.30;5.60;;;26.10;52.20;;;;;;6130960;28;80483;-66
2021/07/02 15:18:37;;;;;;;14.02;5.85;;;26.10;52.20;;;;;;6131133;28;81488;-66
2021/07/02 15:21:37;;;;;;;10.27;5.72;;;26.10;52.20;;;;;;6132405;28;80604;-67
2021/07/02 15:24:38;;;;;;;13.43;4.88;;;26.10;52.20;;;;;;6129757;28;80789;-66
2021/07/02 15:27:38;;;;;;;13.73;4.60;;;26.10;52.10;;;;;;6157088;28;80419;-67
2021/07/02 15:30:39;;;;;;;6.95;4.45;;;26.10;52.20;;;;;;6133096;28;80727;-64
2021/07/02 15:33:39;;;;;;;20.80;6.22;;;26.10;52.40;;;;;;6126954;28;81273;-66
2021/07/02 15:36:40;;;;;;;13.40;4.50;;;26.10;52.40;;;;;;6135249;28;80547;-67
2021/07/02 15:39:40;;;;;;;13.45;4.40;;;26.10;52.30;;;;;;6130311;28;80869;-65
2021/07/02 15:42:41;;;;;;;26.50;4.85;;;26.10;52.20;;;;;;6133246;28;80493;-64
2021/07/02 15:45:41;;;;;;;7.32;4.28;;;26.10;51.90;;;;;;6134407;28;80808;-66